Time;durP1;ratioP1;P1;durP2;ratioP2;P2;SDS_P1;SDS_P2;PMS_P1;PMS_P2;Temp;Humidity;BMP_temperature;BMP_pressure;BME280_temperature;BME280_humidity;BME280_pressure;Samples;Min_cycle;Max_cycle;Signal;HPM_P1;HPM_P2
2023/02/04 00:02:08;;;;;;;;;;;;;;;9.78;nan;102177.22;6237645;23;19994;-85
2023/02/04 00:04:33;;;;;;;;;;;;;;;9.76;nan;102197.19;6237306;23;19912;-85
2023/02/04 00:06:58;;;;;;;;;;;;;;;9.76;nan;102210.59;6238298;22;20215;-85
2023/02/04 00:09:24;;;;;;;;;;;;;;;9.73;nan;102221.72;6238253;23;19912;-84
2023/02/04 00:11:49;;;;;;;;;;;;;;;9.70;nan;102236.34;6238508;23;19953;-85
2023/02/04 00:14:15;;;;;;;;;;;;;;;9.62;nan;102236.53;6239356;23;20228;-86
2023/02/04 00:16:40;;;;;;;;;;;;;;;9.58;nan;102259.38;6239376;22;20292;-85
2023/02/04 00:19:05;;;;;;;;;;;;;;;9.51;nan;102272.72;6239509;23;19915;-85
2023/02/04 00:21:31;;;;;;;;;;;;;;;9.52;nan;102279.75;6236668;23;19918;-84
2023/02/04 00:23:56;;;;;;;;;;;;;;;9.48;nan;102289.19;6238765;23;19918;-85
2023/02/04 00:26:22;;;;;;;;;;;;;;;9.49;nan;102298.88;6238385;22;20250;-86
2023/02/04 00:28:47;;;;;;;;;;;;;;;9.45;nan;102296.81;6239280;23;19907;-86
2023/02/04 00:31:12;;;;;;;;;;;;;;;9.44;nan;102311.22;6239152;23;19973;-86
2023/02/04 00:33:38;;;;;;;;;;;;;;;9.44;nan;102317.38;6237900;23;20343;-85
2023/02/04 00:36:03;;;;;;;;;;;;;;;9.44;nan;102336.09;6238975;22;19907;-84
2023/02/04 00:38:29;;;;;;;;;;;;;;;9.39;nan;102334.03;6238727;23;19919;-85
2023/02/04 00:40:54;;;;;;;;;;;;;;;9.31;nan;102344.91;6239333;23;19914;-85
2023/02/04 00:43:19;;;;;;;;;;;;;;;9.29;nan;102352.31;6238060;23;19947;-85
2023/02/04 00:45:45;;;;;;;;;;;;;;;9.30;nan;102366.50;6239038;23;19974;-85
2023/02/04 00:48:10;;;;;;;;;;;;;;;9.30;nan;102372.69;6238253;22;19983;-86
2023/02/04 00:50:38;;;;;;;;;;;;;;;9.27;nan;102374.94;6238553;23;19942;-85
2023/02/04 00:53:04;;;;;;;;;;;;;;;9.23;nan;102387.88;6239163;23;20284;-85
2023/02/04 00:55:29;;;;;;;;;;;;;;;9.21;nan;102403.31;6211239;23;19963;-84
2023/02/04 00:57:55;;;;;;;;;;;;;;;9.18;nan;102409.06;6238343;22;19912;-85
2023/02/04 01:00:20;;;;;;;;;;;;;;;9.18;nan;102419.75;6238435;23;19981;-85
2023/02/04 01:02:45;;;;;;;;;;;;;;;9.15;nan;102421.97;6238214;23;19907;-85
2023/02/04 01:05:11;;;;;;;;;;;;;;;9.13;nan;102440.06;6238244;23;19908;-86
2023/02/04 01:07:36;;;;;;;;;;;;;;;9.15;nan;102448.72;6237538;22;20550;-85
2023/02/04 01:10:01;;;;;;;;;;;;;;;9.13;nan;102464.13;6238490;23;19918;-85
2023/02/04 01:12:27;;;;;;;;;;;;;;;9.10;nan;102468.03;6235881;23;19955;-84
2023/02/04 01:14:53;;;;;;;;;;;;;;;9.11;nan;102484.91;6234980;23;20259;-85
2023/02/04 01:17:20;;;;;;;;;;;;;;;9.04;nan;102482.19;6234683;22;19931;-86
2023/02/04 01:19:45;;;;;;;;;;;;;;;9.02;nan;102498.44;6235994;23;19907;-84
2023/02/04 01:22:10;;;;;;;;;;;;;;;8.98;nan;102497.19;6238727;23;20258;-85
2023/02/04 01:24:36;;;;;;;;;;;;;;;8.99;nan;102508.72;6237985;23;20268;-84
2023/02/04 01:27:01;;;;;;;;;;;;;;;8.99;nan;102514.06;6237885;22;19943;-85
2023/02/04 01:29:27;;;;;;;;;;;;;;;8.98;nan;102517.75;6237415;23;19915;-85
2023/02/04 01:31:52;;;;;;;;;;;;;;;8.95;nan;102529.63;6238477;23;19908;-85
2023/02/04 01:34:17;;;;;;;;;;;;;;;8.97;nan;102532.09;6237553;23;19916;-85
2023/02/04 01:36:43;;;;;;;;;;;;;;;8.97;nan;102537.44;6238406;22;19907;-85
2023/02/04 01:39:08;;;;;;;;;;;;;;;8.94;nan;102545.88;6210828;23;19943;-84
2023/02/04 01:41:34;;;;;;;;;;;;;;;8.93;nan;102552.22;6208945;23;19938;-86
2023/02/04 01:43:59;;;;;;;;;;;;;;;8.90;nan;102561.47;6237686;23;19931;-85
2023/02/04 01:46:25;;;;;;;;;;;;;;;8.90;nan;102560.66;6237157;22;19911;-85
2023/02/04 01:48:50;;;;;;;;;;;;;;;8.87;nan;102571.72;6237168;23;19908;-84
2023/02/04 01:51:19;;;;;;;;;;;;;;;8.87;nan;102577.06;6237721;23;19911;-85
2023/02/04 01:53:45;;;;;;;;;;;;;;;8.86;nan;102575.41;6238995;23;19947;-85
2023/02/04 01:56:15;;;;;;;;;;;;;;;8.82;nan;102593.69;6238446;22;19907;-85
2023/02/04 01:58:40;;;;;;;;;;;;;;;8.79;nan;102600.22;6238766;23;19916;-85
2023/02/04 02:01:10;;;;;;;;;;;;;;;8.79;nan;102610.91;6240207;23;19961;-84
2023/02/04 02:03:35;;;;;;;;;;;;;;;8.78;nan;102624.47;6238606;23;20543;-84
2023/02/04 02:06:00;;;;;;;;;;;;;;;8.74;nan;102636.56;6239765;22;19912;-84
2023/02/04 02:08:26;;;;;;;;;;;;;;;8.69;nan;102637.13;6238476;23;19914;-85
2023/02/04 02:10:51;;;;;;;;;;;;;;;8.64;nan;102649.41;6239217;23;19911;-84
2023/02/04 02:13:18;;;;;;;;;;;;;;;8.64;nan;102646.75;6238414;23;20355;-84
2023/02/04 02:15:43;;;;;;;;;;;;;;;8.63;nan;102648.59;6238882;23;20310;-84
2023/02/04 02:18:09;;;;;;;;;;;;;;;8.62;nan;102652.28;6238165;22;19925;-84
2023/02/04 02:20:35;;;;;;;;;;;;;;;8.65;nan;102665.25;6238583;23;19934;-84
2023/02/04 02:23:23;;;;;;;;;;;;;;;8.66;nan;102674.09;6239361;23;20347;-84
2023/02/04 02:25:49;;;;;;;;;;;;;;;8.61;nan;102682.66;6211047;23;20287;-84
2023/02/04 02:28:17;;;;;;;;;;;;;;;8.55;nan;102688.75;6238953;22;19942;-84
2023/02/04 02:30:46;;;;;;;;;;;;;;;8.42;nan;102693.94;6239565;23;19919;-84
2023/02/04 02:33:13;;;;;;;;;;;;;;;8.32;nan;102696.06;6212259;23;19962;-84
2023/02/04 02:35:42;;;;;;;;;;;;;;;8.31;nan;102705.06;6239315;23;19911;-84
2023/02/04 02:38:08;;;;;;;;;;;;;;;8.32;nan;102718.25;6238536;22;19931;-84
2023/02/04 02:40:33;;;;;;;;;;;;;;;8.31;nan;102723.78;6238959;23;19912;-84
2023/02/04 02:42:59;;;;;;;;;;;;;;;8.29;nan;102733.81;6240596;23;19907;-84
2023/02/04 02:45:26;;;;;;;;;;;;;;;8.28;nan;102750.84;6239068;23;20402;-84
2023/02/04 02:47:51;;;;;;;;;;;;;;;8.22;nan;102756.91;6211083;23;20178;-84
2023/02/04 02:50:20;;;;;;;;;;;;;;;8.21;nan;102765.94;6239225;23;19935;-83
2023/02/04 02:52:45;;;;;;;;;;;;;;;8.22;nan;102768.41;6238506;23;19935;-84
2023/02/04 02:55:15;;;;;;;;;;;;;;;8.22;nan;102771.09;6238976;23;19907;-84
2023/02/04 02:57:41;;;;;;;;;;;;;;;8.20;nan;102781.13;6238759;22;20409;-84
2023/02/04 03:00:14;;;;;;;;;;;;;;;8.13;nan;102785.56;6238298;23;19911;-84
2023/02/04 03:02:39;;;;;;;;;;;;;;;8.09;nan;102803.78;6211175;23;19911;-84
2023/02/04 03:05:05;;;;;;;;;;;;;;;8.09;nan;102806.44;6238469;23;19914;-84
2023/02/04 03:07:30;;;;;;;;;;;;;;;8.10;nan;102813.44;6236004;22;20409;-84
2023/02/04 03:09:56;;;;;;;;;;;;;;;8.12;nan;102814.09;6237962;23;19958;-84
2023/02/04 03:12:21;;;;;;;;;;;;;;;8.15;nan;102821.75;6237811;23;19911;-84
2023/02/04 03:14:47;;;;;;;;;;;;;;;8.17;nan;102832.22;6239099;23;19908;-84
2023/02/04 03:17:12;;;;;;;;;;;;;;;8.16;nan;102834.06;6238111;22;19927;-85
2023/02/04 03:19:38;;;;;;;;;;;;;;;8.18;nan;102837.38;6238366;23;19986;-84
2023/02/04 03:22:04;;;;;;;;;;;;;;;8.19;nan;102843.56;6237550;23;20581;-84
2023/02/04 03:24:30;;;;;;;;;;;;;;;8.19;nan;102860.41;6238105;23;19914;-84
2023/02/04 03:26:55;;;;;;;;;;;;;;;8.15;nan;102864.47;6237839;22;19987;-84
2023/02/04 03:29:20;;;;;;;;;;;;;;;8.11;nan;102865.84;6237916;23;20315;-84
2023/02/04 03:31:46;;;;;;;;;;;;;;;8.09;nan;102877.72;6238171;23;19907;-84
2023/02/04 03:34:11;;;;;;;;;;;;;;;8.05;nan;102885.22;6237346;23;19915;-84
2023/02/04 03:36:37;;;;;;;;;;;;;;;8.04;nan;102886.22;6210702;23;19923;-84
2023/02/04 03:39:03;;;;;;;;;;;;;;;8.01;nan;102899.94;6238127;23;19908;-84
2023/02/04 03:41:28;;;;;;;;;;;;;;;8.00;nan;102900.94;6237152;23;19958;-84
2023/02/04 03:43:55;;;;;;;;;;;;;;;8.02;nan;102906.94;6237999;23;19950;-85
2023/02/04 03:46:22;;;;;;;;;;;;;;;8.01;nan;102910.63;6237421;22;19939;-84
2023/02/04 03:48:48;;;;;;;;;;;;;;;7.98;nan;102923.50;6237657;23;20255;-85
2023/02/04 03:51:13;;;;;;;;;;;;;;;7.98;nan;102916.31;6238197;23;20027;-85
2023/02/04 03:53:38;;;;;;;;;;;;;;;7.97;nan;102920.00;6236507;23;19916;-84
2023/02/04 03:56:04;;;;;;;;;;;;;;;7.98;nan;102931.50;6236481;22;19916;-84
2023/02/04 03:58:29;;;;;;;;;;;;;;;8.01;nan;102942.66;6236303;23;19914;-85
2023/02/04 04:00:54;;;;;;;;;;;;;;;8.02;nan;102943.50;6238402;23;19908;-84
2023/02/04 04:03:20;;;;;;;;;;;;;;;8.03;nan;102945.16;6237925;23;19946;-84
2023/02/04 04:05:45;;;;;;;;;;;;;;;8.04;nan;102955.66;6236966;23;19927;-85
2023/02/04 04:08:10;;;;;;;;;;;;;;;8.04;nan;102969.00;6237517;22;19908;-84
2023/02/04 04:10:36;;;;;;;;;;;;;;;7.99;nan;102979.38;6236968;23;19938;-84
2023/02/04 04:13:01;;;;;;;;;;;;;;;8.01;nan;102988.03;6238355;23;19914;-84
2023/02/04 04:15:27;;;;;;;;;;;;;;;7.97;nan;102992.06;6236904;23;20240;-84
2023/02/04 04:17:52;;;;;;;;;;;;;;;7.97;nan;102994.75;6210159;23;20299;-84
2023/02/04 04:20:17;;;;;;;;;;;;;;;7.96;nan;103011.78;6238511;23;19908;-85
2023/02/04 04:22:44;;;;;;;;;;;;;;;7.96;nan;103019.78;6237066;23;20215;-84
2023/02/04 04:25:10;;;;;;;;;;;;;;;7.96;nan;103024.28;6237775;23;19943;-85
2023/02/04 04:27:35;;;;;;;;;;;;;;;7.95;nan;103020.78;6236033;22;20151;-84
2023/02/04 04:30:00;;;;;;;;;;;;;;;7.95;nan;103020.78;6237718;23;19911;-84
2023/02/04 04:32:26;;;;;;;;;;;;;;;7.96;nan;103025.13;6238035;23;20331;-85
2023/02/04 04:34:51;;;;;;;;;;;;;;;7.97;nan;103029.44;6236525;23;19912;-84
2023/02/04 04:37:16;;;;;;;;;;;;;;;7.99;nan;103037.28;6237219;22;19978;-85
2023/02/04 04:39:42;;;;;;;;;;;;;;;7.96;nan;103043.81;6237417;23;20386;-85
2023/02/04 04:42:08;;;;;;;;;;;;;;;7.94;nan;103053.84;6238176;23;20275;-84
2023/02/04 04:44:33;;;;;;;;;;;;;;;7.90;nan;103052.53;6235761;23;20322;-84
2023/02/04 04:47:02;;;;;;;;;;;;;;;7.88;nan;103059.84;6235984;22;19919;-84
2023/02/04 04:49:27;;;;;;;;;;;;;;;7.86;nan;103059.19;6235161;23;19989;-84
2023/02/04 04:51:52;;;;;;;;;;;;;;;7.78;nan;103068.06;6233666;23;19912;-84
2023/02/04 04:54:18;;;;;;;;;;;;;;;7.69;nan;103066.44;6204737;23;20532;-84
2023/02/04 04:56:43;;;;;;;;;;;;;;;7.60;nan;103077.31;6231796;22;19939;-84
2023/02/04 04:59:08;;;;;;;;;;;;;;;7.51;nan;103089.81;6232455;23;19916;-84
2023/02/04 05:01:34;;;;;;;;;;;;;;;7.47;nan;103104.50;6206367;23;20303;-84
2023/02/04 05:03:59;;;;;;;;;;;;;;;7.48;nan;103112.34;6232018;23;20414;-84
2023/02/04 05:06:25;;;;;;;;;;;;;;;7.51;nan;103112.00;6205069;23;19911;-84
2023/02/04 05:08:50;;;;;;;;;;;;;;;7.55;nan;103116.00;6233078;23;19919;-84
2023/02/04 05:11:16;;;;;;;;;;;;;;;7.54;nan;103117.03;6233357;23;20171;-84
2023/02/04 05:13:41;;;;;;;;;;;;;;;7.55;nan;103126.69;6231945;23;19935;-84
2023/02/04 05:16:07;;;;;;;;;;;;;;;7.50;nan;103137.00;6235046;22;20006;-84
2023/02/04 05:18:32;;;;;;;;;;;;;;;7.49;nan;103140.69;6234984;23;19915;-84
2023/02/04 05:20:58;;;;;;;;;;;;;;;7.49;nan;103151.34;6236551;23;20413;-84
2023/02/04 05:23:23;;;;;;;;;;;;;;;7.49;nan;103151.34;6235720;23;20251;-85
2023/02/04 05:25:48;;;;;;;;;;;;;;;7.47;nan;103157.88;6235342;23;19990;-84
2023/02/04 05:28:14;;;;;;;;;;;;;;;7.38;nan;103156.22;6235398;22;19923;-85
2023/02/04 05:30:40;;;;;;;;;;;;;;;7.32;nan;103171.03;6236627;23;19946;-85
2023/02/04 05:33:05;;;;;;;;;;;;;;;7.29;nan;103176.72;6238588;23;19907;-84
2023/02/04 05:35:30;;;;;;;;;;;;;;;7.29;nan;103190.03;6238867;23;20395;-84
2023/02/04 05:37:56;;;;;;;;;;;;;;;7.29;nan;103176.72;6237022;22;19918;-85
2023/02/04 05:40:21;;;;;;;;;;;;;;;7.30;nan;103193.53;6239179;23;19908;-84
2023/02/04 05:42:47;;;;;;;;;;;;;;;7.29;nan;103192.72;6238456;23;20079;-85
2023/02/04 05:45:14;;;;;;;;;;;;;;;7.30;nan;103199.72;6238549;23;19907;-84
2023/02/04 05:47:40;;;;;;;;;;;;;;;7.31;nan;103208.53;6235149;22;19912;-84
2023/02/04 05:50:05;;;;;;;;;;;;;;;7.27;nan;103216.88;6237705;23;19919;-84
2023/02/04 05:52:30;;;;;;;;;;;;;;;7.25;nan;103223.38;6236965;23;19939;-84
2023/02/04 05:54:56;;;;;;;;;;;;;;;7.23;nan;103226.22;6237908;23;20328;-84
2023/02/04 05:57:21;;;;;;;;;;;;;;;7.15;nan;103223.53;6235474;22;20248;-84
2023/02/04 05:59:46;;;;;;;;;;;;;;;7.13;nan;103230.03;6237570;23;19908;-84
2023/02/04 06:02:12;;;;;;;;;;;;;;;7.14;nan;103237.03;6237543;23;19911;-84
2023/02/04 06:04:37;;;;;;;;;;;;;;;7.11;nan;103246.19;6238458;23;19918;-84
2023/02/04 06:07:02;;;;;;;;;;;;;;;7.11;nan;103253.34;6238517;22;19916;-84
2023/02/04 06:09:28;;;;;;;;;;;;;;;7.11;nan;103258.69;6238229;23;19912;-84
2023/02/04 06:11:53;;;;;;;;;;;;;;;7.12;nan;103257.69;6237432;23;20289;-84
2023/02/04 06:14:18;;;;;;;;;;;;;;;7.11;nan;103272.00;6239140;23;20350;-84
2023/02/04 06:16:44;;;;;;;;;;;;;;;7.09;nan;103271.34;6238026;22;19919;-84
2023/02/04 06:19:09;;;;;;;;;;;;;;;7.08;nan;103275.00;6237931;23;19908;-84
2023/02/04 06:21:34;;;;;;;;;;;;;;;7.10;nan;103286.34;6238456;23;19907;-84
2023/02/04 06:24:00;;;;;;;;;;;;;;;7.05;nan;103286.00;6237236;23;19958;-84
2023/02/04 06:26:26;;;;;;;;;;;;;;;6.98;nan;103291.13;6238195;22;20324;-84
2023/02/04 06:28:51;;;;;;;;;;;;;;;6.94;nan;103290.63;6210456;23;20280;-84
2023/02/04 06:31:16;;;;;;;;;;;;;;;6.93;nan;103296.13;6237649;23;19914;-84
2023/02/04 06:33:41;;;;;;;;;;;;;;;6.94;nan;103303.13;6238002;23;19912;-84
2023/02/04 06:36:07;;;;;;;;;;;;;;;6.98;nan;103307.97;6239686;22;20037;-84
2023/02/04 06:38:32;;;;;;;;;;;;;;;7.04;nan;103319.00;6238304;23;19911;-84
2023/02/04 06:40:58;;;;;;;;;;;;;;;7.10;nan;103327.16;6238579;23;19977;-84
2023/02/04 06:43:24;;;;;;;;;;;;;;;7.14;nan;103333.84;6237428;23;19914;-83
2023/02/04 06:45:50;;;;;;;;;;;;;;;7.14;nan;103343.66;6239327;23;19911;-84
2023/02/04 06:48:15;;;;;;;;;;;;;;;7.19;nan;103344.88;6235685;22;19981;-84
2023/02/04 06:50:40;;;;;;;;;;;;;;;7.11;nan;103350.16;6239150;23;19911;-84
2023/02/04 06:53:06;;;;;;;;;;;;;;;7.10;nan;103342.31;6239487;23;20347;-84
2023/02/04 06:55:31;;;;;;;;;;;;;;;7.11;nan;103349.31;6238960;23;19915;-84
2023/02/04 06:57:56;;;;;;;;;;;;;;;7.11;nan;103344.81;6237006;22;19918;-84
2023/02/04 07:00:22;;;;;;;;;;;;;;;7.14;nan;103357.84;6238339;23;20339;-84
2023/02/04 07:02:47;;;;;;;;;;;;;;;7.19;nan;103362.72;6211563;23;20395;-84
2023/02/04 07:05:12;;;;;;;;;;;;;;;7.23;nan;103358.72;6237786;23;20153;-84
2023/02/04 07:07:38;;;;;;;;;;;;;;;7.26;nan;103358.38;6237668;22;19920;-84
2023/02/04 07:10:03;;;;;;;;;;;;;;;7.30;nan;103358.88;6239123;23;19990;-84
2023/02/04 07:12:29;;;;;;;;;;;;;;;7.32;nan;103362.22;6237395;23;19912;-84
2023/02/04 07:14:54;;;;;;;;;;;;;;;7.33;nan;103367.38;6238089;23;19961;-84
2023/02/04 07:17:19;;;;;;;;;;;;;;;7.40;nan;103379.09;6238395;22;19915;-84
2023/02/04 07:19:45;;;;;;;;;;;;;;;7.46;nan;103372.25;6237594;23;19907;-85
2023/02/04 07:22:10;;;;;;;;;;;;;;;7.47;nan;103376.59;6236430;23;19911;-85
2023/02/04 07:24:36;;;;;;;;;;;;;;;7.48;nan;103372.94;6237309;23;19977;-85
2023/02/04 07:27:01;;;;;;;;;;;;;;;7.51;nan;103381.44;6237354;22;19961;-85
2023/02/04 07:29:26;;;;;;;;;;;;;;;7.48;nan;103379.09;6238457;23;20351;-84
2023/02/04 07:31:52;;;;;;;;;;;;;;;7.47;nan;103388.09;6237085;23;20251;-84
2023/02/04 07:34:17;;;;;;;;;;;;;;;7.51;nan;103389.44;6239585;23;19911;-85
2023/02/04 07:36:43;;;;;;;;;;;;;;;7.55;nan;103388.13;6237769;22;19916;-85
2023/02/04 07:39:09;;;;;;;;;;;;;;;7.61;nan;103386.63;6237725;23;19986;-84
2023/02/04 07:41:34;;;;;;;;;;;;;;;7.66;nan;103397.66;6237262;23;20343;-85
2023/02/04 07:44:00;;;;;;;;;;;;;;;7.68;nan;103395.66;6238280;23;19911;-85
2023/02/04 07:46:25;;;;;;;;;;;;;;;7.73;nan;103401.34;6238313;22;19922;-85
2023/02/04 07:48:51;;;;;;;;;;;;;;;7.76;nan;103410.84;6236197;23;19979;-85
2023/02/04 07:51:16;;;;;;;;;;;;;;;7.78;nan;103411.53;6237837;23;20328;-85
2023/02/04 07:53:41;;;;;;;;;;;;;;;7.77;nan;103413.34;6237183;23;19908;-85
2023/02/04 07:56:07;;;;;;;;;;;;;;;7.76;nan;103421.53;6237144;22;19912;-85
2023/02/04 07:58:32;;;;;;;;;;;;;;;7.79;nan;103426.53;6237117;23;20193;-85
2023/02/04 08:00:58;;;;;;;;;;;;;;;7.81;nan;103432.53;6237781;23;19919;-84
2023/02/04 08:03:23;;;;;;;;;;;;;;;7.84;nan;103440.22;6236763;23;19918;-84
2023/02/04 08:05:49;;;;;;;;;;;;;;;7.93;nan;103433.06;6237350;23;19911;-85
2023/02/04 08:08:14;;;;;;;;;;;;;;;8.05;nan;103445.91;6235290;22;19918;-85
2023/02/04 08:10:40;;;;;;;;;;;;;;;8.14;nan;103452.94;6235750;23;19938;-85
2023/02/04 08:13:05;;;;;;;;;;;;;;;8.17;nan;103455.28;6235297;23;19978;-85
2023/02/04 08:15:31;;;;;;;;;;;;;;;8.16;nan;103458.94;6236834;23;19912;-85
2023/02/04 08:17:56;;;;;;;;;;;;;;;8.12;nan;103473.66;6236367;22;19911;-85
2023/02/04 08:20:22;;;;;;;;;;;;;;;8.12;nan;103470.97;6238448;23;19914;-86
2023/02/04 08:22:47;;;;;;;;;;;;;;;8.14;nan;103482.31;6240614;23;19918;-84
2023/02/04 08:25:12;;;;;;;;;;;;;;;8.21;nan;103484.31;6243082;23;20435;-84
2023/02/04 08:27:38;;;;;;;;;;;;;;;8.31;nan;103487.69;6237930;22;19927;-84
2023/02/04 08:30:04;;;;;;;;;;;;;;;8.44;nan;103488.06;6240222;23;19908;-84
2023/02/04 08:32:30;;;;;;;;;;;;;;;8.56;nan;103491.22;6238291;23;20300;-86
2023/02/04 08:34:55;;;;;;;;;;;;;;;8.57;nan;103491.03;6237249;23;19987;-86
2023/02/04 08:37:21;;;;;;;;;;;;;;;8.58;nan;103500.72;6236728;22;19946;-87
2023/02/04 08:39:47;;;;;;;;;;;;;;;8.57;nan;103504.41;6204298;23;19977;-87
2023/02/04 08:42:14;;;;;;;;;;;;;;;8.55;nan;103510.91;6234385;23;20070;-87
2023/02/04 08:44:39;;;;;;;;;;;;;;;8.55;nan;103519.78;6235762;23;19943;-88
2023/02/04 08:47:05;;;;;;;;;;;;;;;8.52;nan;103517.44;6209738;23;20243;-87
2023/02/04 08:49:30;;;;;;;;;;;;;;;8.50;nan;103527.47;6237091;23;19911;-86
2023/02/04 08:51:56;;;;;;;;;;;;;;;8.50;nan;103519.44;6235911;23;19911;-85
2023/02/04 08:54:21;;;;;;;;;;;;;;;8.51;nan;103531.81;6237732;23;19931;-84
2023/02/04 08:56:47;;;;;;;;;;;;;;;8.51;nan;103531.81;6237051;22;20323;-84
2023/02/04 08:59:12;;;;;;;;;;;;;;;8.52;nan;103536.16;6238133;23;19934;-84
2023/02/04 09:01:37;;;;;;;;;;;;;;;8.54;nan;103541.31;6236479;23;20343;-84
2023/02/04 09:04:03;;;;;;;;;;;;;;;8.53;nan;103545.00;6233870;23;19918;-84
2023/02/04 09:06:28;;;;;;;;;;;;;;;8.54;nan;103541.31;6234773;22;19907;-85
2023/02/04 09:08:53;;;;;;;;;;;;;;;8.54;nan;103550.16;6235916;23;19939;-85
2023/02/04 09:11:19;;;;;;;;;;;;;;;8.59;nan;103555.84;6209304;23;19916;-85
2023/02/04 09:13:44;;;;;;;;;;;;;;;8.62;nan;103554.69;6236117;23;19918;-85
2023/02/04 09:18:45;;;;;;;;;;;;;;;8.69;nan;103556.53;6234458;23;19923;-87
2023/02/04 09:21:10;;;;;;;;;;;;;;;8.72;nan;103561.53;6236827;22;20224;-87
2023/02/04 09:23:36;;;;;;;;;;;;;;;8.78;nan;103566.19;6237058;22;20432;-86
2023/02/04 09:26:03;;;;;;;;;;;;;;;8.89;nan;103564.22;6238137;22;19907;-86
2023/02/04 09:28:28;;;;;;;;;;;;;;;9.04;nan;103568.72;6211666;22;19908;-86
2023/02/04 09:30:54;;;;;;;;;;;;;;;9.25;nan;103573.53;6208373;23;20366;-86
2023/02/04 09:33:19;;;;;;;;;;;;;;;9.46;nan;103574.81;6206970;23;19916;-86
2023/02/04 09:35:45;;;;;;;;;;;;;;;9.63;nan;103574.59;6206991;23;19999;-86
2023/02/04 09:38:10;;;;;;;;;;;;;;;9.81;nan;103574.34;6205850;23;20302;-87
2023/02/04 09:40:40;;;;;;;;;;;;;;;9.93;nan;103580.16;6207094;23;19990;-86
2023/02/04 09:43:05;;;;;;;;;;;;;;;10.03;nan;103582.59;6206940;23;19931;-86
2023/02/04 09:45:37;;;;;;;;;;;;;;;10.04;nan;103584.28;6207857;23;19919;-86
2023/02/04 09:48:05;;;;;;;;;;;;;;;9.87;nan;103584.34;6206693;23;19975;-86
2023/02/04 09:50:31;;;;;;;;;;;;;;;9.80;nan;103578.03;6208202;23;19935;-87
2023/02/04 09:52:59;;;;;;;;;;;;;;;9.77;nan;103585.59;6206888;23;20241;-86
2023/02/04 09:55:32;;;;;;;;;;;;;;;9.84;nan;103583.88;6206843;23;19938;-86
2023/02/04 09:57:59;;;;;;;;;;;;;;;10.02;nan;103584.44;6207265;23;19908;-86
2023/02/04 10:00:26;;;;;;;;;;;;;;;10.03;nan;103586.13;6208391;23;19912;-88
2023/02/04 10:03:01;;;;;;;;;;;;;;;;;;;;;
2023/02/04 10:05:29;;;;;;;;;;;;;;;10.02;nan;103591.66;6201093;23;19922;-86
2023/02/04 10:07:55;;;;;;;;;;;;;;;9.98;nan;103597.38;6208097;23;20327;-85
2023/02/04 10:10:24;;;;;;;;;;;;;;;9.88;nan;103606.63;6207786;23;19936;-87
2023/02/04 10:12:50;;;;;;;;;;;;;;;9.83;nan;103607.13;6208627;23;19912;-86
2023/02/04 10:15:18;;;;;;;;;;;;;;;9.75;nan;103612.53;6207414;23;20336;-87
2023/02/04 10:17:44;;;;;;;;;;;;;;;9.78;nan;103617.53;6225781;23;20243;-87
2023/02/04 10:20:17;;;;;;;;;;;;;;;9.86;nan;103608.63;6237871;23;19912;-86
2023/02/04 10:22:42;;;;;;;;;;;;;;;9.98;nan;103592.00;6239237;23;19919;-87
2023/02/04 10:25:16;;;;;;;;;;;;;;;10.14;nan;103603.66;6238926;23;19908;-87
2023/02/04 10:27:50;;;;;;;;;;;;;;;10.33;nan;103600.56;6239246;22;19911;-86
2023/02/04 10:30:18;;;;;;;;;;;;;;;10.56;nan;103606.78;6238719;23;20310;-87
2023/02/04 10:32:44;;;;;;;;;;;;;;;10.68;nan;103598.31;6239470;23;19911;-86
2023/02/04 10:35:12;;;;;;;;;;;;;;;10.67;nan;103602.84;6238711;23;20386;-86
2023/02/04 10:37:37;;;;;;;;;;;;;;;10.67;nan;103597.50;6238826;22;19965;-86
2023/02/04 10:40:04;;;;;;;;;;;;;;;10.68;nan;103598.31;6238731;23;19915;-86
2023/02/04 10:42:30;;;;;;;;;;;;;;;10.70;nan;103602.50;6239644;23;19908;-86
2023/02/04 10:44:56;;;;;;;;;;;;;;;10.69;nan;103602.66;6237876;23;19908;-87
2023/02/04 10:47:23;;;;;;;;;;;;;;;10.72;nan;103594.25;6238452;22;19912;-86
2023/02/04 10:49:58;;;;;;;;;;;;;;;10.83;nan;103600.03;6238768;23;19911;-85
2023/02/04 10:52:29;;;;;;;;;;;;;;;11.02;nan;103601.38;6238283;23;19911;-86
2023/02/04 10:54:54;;;;;;;;;;;;;;;11.04;nan;103611.94;6238940;23;20343;-85
2023/02/04 10:57:22;;;;;;;;;;;;;;;10.87;nan;103606.72;6238309;22;20006;-86
2023/02/04 10:59:52;;;;;;;;;;;;;;;10.82;nan;103610.97;6211096;23;19947;-87
2023/02/04 11:02:20;;;;;;;;;;;;;;;10.72;nan;103616.56;6239225;23;19907;-85
2023/02/04 11:04:46;;;;;;;;;;;;;;;10.80;nan;103623.72;6237930;23;19907;-86
2023/02/04 11:07:12;;;;;;;;;;;;;;;10.67;nan;103631.50;6236965;22;20003;-86
2023/02/04 11:09:40;;;;;;;;;;;;;;;10.52;nan;103637.63;6238595;23;19915;-86
2023/02/04 11:12:18;;;;;;;;;;;;;;;10.47;nan;103633.81;6237848;23;19912;-86
2023/02/04 11:14:53;;;;;;;;;;;;;;;10.35;nan;103635.22;6237881;23;19947;-85
2023/02/04 11:17:19;;;;;;;;;;;;;;;10.37;nan;103639.41;6237524;22;20005;-86
2023/02/04 11:19:45;;;;;;;;;;;;;;;10.35;nan;103637.91;6236868;23;19908;-85
2023/02/04 11:22:21;;;;;;;;;;;;;;;10.40;nan;103633.69;6237991;23;20242;-86
2023/02/04 11:24:47;;;;;;;;;;;;;;;10.48;nan;103639.00;6237371;23;19919;-85
2023/02/04 11:27:20;;;;;;;;;;;;;;;10.50;nan;103633.47;6238122;22;20240;-86
2023/02/04 11:29:46;;;;;;;;;;;;;;;10.58;nan;103644.97;6243235;23;19915;-85
2023/02/04 11:32:34;;;;;;;;;;;;;;;10.63;nan;103647.13;6239413;23;20343;-85
2023/02/04 11:35:12;;;;;;;;;;;;;;;10.53;nan;103638.47;6235929;23;20382;-86
2023/02/04 11:37:42;;;;;;;;;;;;;;;10.49;nan;103653.25;6236407;22;19919;-85
2023/02/04 11:40:30;;;;;;;;;;;;;;;10.45;nan;103647.41;6236154;23;19993;-85
2023/02/04 11:43:02;;;;;;;;;;;;;;;10.51;nan;103661.94;6219548;23;19912;-88
2023/02/04 11:45:31;;;;;;;;;;;;;;;10.65;nan;103665.72;6237348;23;20346;-85
2023/02/04 11:48:01;;;;;;;;;;;;;;;10.86;nan;103652.50;6237667;22;20355;-86
2023/02/04 11:50:30;;;;;;;;;;;;;;;11.17;nan;103655.94;6237867;23;19922;-85
2023/02/04 11:52:57;;;;;;;;;;;;;;;11.49;nan;103651.28;6238521;23;20397;-86
2023/02/04 11:55:22;;;;;;;;;;;;;;;11.66;nan;103662.66;6236430;23;19922;-86
2023/02/04 11:57:54;;;;;;;;;;;;;;;11.59;nan;103667.94;6237333;22;19912;-85
2023/02/04 12:00:25;;;;;;;;;;;;;;;11.42;nan;103677.19;6236920;23;19908;-86
2023/02/04 12:02:56;;;;;;;;;;;;;;;11.22;nan;103670.66;6209800;23;19911;-84
2023/02/04 12:05:21;;;;;;;;;;;;;;;11.06;nan;103680.50;6237056;23;19915;-85
2023/02/04 12:07:49;;;;;;;;;;;;;;;10.97;nan;103681.59;6236097;22;19973;-86
2023/02/04 12:10:24;;;;;;;;;;;;;;;11.02;nan;103681.88;6236917;23;19912;-85
2023/02/04 12:12:58;;;;;;;;;;;;;;;11.03;nan;103688.91;6238118;23;19994;-85
2023/02/04 12:15:31;;;;;;;;;;;;;;;11.06;nan;103688.56;6236310;23;19915;-86
2023/02/04 12:18:03;;;;;;;;;;;;;;;11.06;nan;103690.41;6235398;22;19919;-86
2023/02/04 12:20:28;;;;;;;;;;;;;;;11.25;nan;103686.38;6236224;23;19918;-85
2023/02/04 12:22:54;;;;;;;;;;;;;;;11.37;nan;103698.38;6237874;23;19912;-85
2023/02/04 12:25:19;;;;;;;;;;;;;;;11.41;nan;103703.19;6237739;23;19911;-86
2023/02/04 12:27:45;;;;;;;;;;;;;;;11.39;nan;103693.66;6236930;22;19911;-85
2023/02/04 12:30:11;;;;;;;;;;;;;;;11.46;nan;103708.00;6238054;23;19912;-85
2023/02/04 12:32:36;;;;;;;;;;;;;;;11.55;nan;103709.59;6237798;23;20232;-86
2023/02/04 12:35:02;;;;;;;;;;;;;;;11.51;nan;103697.56;6236192;23;19934;-86
2023/02/04 12:37:27;;;;;;;;;;;;;;;11.63;nan;103706.00;6236555;22;20090;-86
2023/02/04 12:39:53;;;;;;;;;;;;;;;11.80;nan;103702.16;6236252;23;19915;-85
2023/02/04 12:42:18;;;;;;;;;;;;;;;11.93;nan;103704.22;6209385;23;19950;-85
2023/02/04 12:44:44;;;;;;;;;;;;;;;12.12;nan;103698.28;6236267;23;19977;-86
2023/02/04 12:47:09;;;;;;;;;;;;;;;12.17;nan;103701.22;6235913;22;19919;-86
2023/02/04 12:49:36;;;;;;;;;;;;;;;12.22;nan;103701.53;6238153;23;20339;-85
2023/02/04 12:52:02;;;;;;;;;;;;;;;12.37;nan;103705.00;6237436;23;20247;-86
2023/02/04 12:54:27;;;;;;;;;;;;;;;12.49;nan;103702.66;6238448;23;19918;-86
2023/02/04 12:56:56;;;;;;;;;;;;;;;12.64;nan;103716.09;6238428;22;19915;-85
2023/02/04 12:59:25;;;;;;;;;;;;;;;12.77;nan;103710.88;6236740;23;19962;-86
2023/02/04 13:01:50;;;;;;;;;;;;;;;12.87;nan;103710.53;6238466;23;19942;-87
2023/02/04 13:04:19;;;;;;;;;;;;;;;12.97;nan;103711.91;6237403;23;19916;-86